createdAt,value
2018-07-06T00:00:01.544Z,6.10
2018-07-06T00:10:02.828Z,5.67
2018-07-06T00:20:04.098Z,5.53
2018-07-06T00:30:05.367Z,4.40
2018-07-06T00:40:07.402Z,3.90
2018-07-06T00:50:08.735Z,4.13
2018-07-06T01:10:16.838Z,4.17
2018-07-06T01:20:18.035Z,3.40
2018-07-06T01:30:19.283Z,2.97
2018-07-06T01:40:21.303Z,3.33
2018-07-06T01:50:23.322Z,2.67
2018-07-06T02:00:24.591Z,3.07
2018-07-06T02:10:25.855Z,2.97
2018-07-06T02:20:27.110Z,2.50
2018-07-06T02:30:28.372Z,2.77
2018-07-06T02:40:29.637Z,2.20
2018-07-06T02:50:30.909Z,2.40
2018-07-06T03:00:32.171Z,2.50
2018-07-06T03:10:33.436Z,2.60
2018-07-06T04:21:21.226Z,2.33
2018-07-06T04:31:22.486Z,2.53
2018-07-06T04:41:23.756Z,2.70
2018-07-06T04:51:25.011Z,2.97
2018-07-06T05:01:26.257Z,3.70
2018-07-06T05:11:27.497Z,2.80
2018-07-06T05:21:28.919Z,3.80
2018-07-06T05:31:30.941Z,4.10
2018-07-06T05:41:32.953Z,3.83
2018-07-06T05:51:34.961Z,4.20
2018-07-06T06:01:36.294Z,4.43
2018-07-06T06:11:37.566Z,4.03
2018-07-06T06:21:38.823Z,3.90
2018-07-06T06:31:40.084Z,5.00
2018-07-06T06:41:41.345Z,4.17
2018-07-06T06:51:42.592Z,4.23
2018-07-06T07:01:43.847Z,4.40
2018-07-06T07:11:45.083Z,4.67
2018-07-06T07:21:46.357Z,4.80
2018-07-06T07:31:47.595Z,5.03
2018-07-06T07:41:48.862Z,4.77
2018-07-06T07:51:50.137Z,4.97
2018-07-06T08:01:51.418Z,4.50
2018-07-06T08:11:52.758Z,4.77
2018-07-06T08:21:54.706Z,5.17
2018-07-06T08:31:56.724Z,5.10
2018-07-06T08:41:58.732Z,4.87
2018-07-06T08:52:00.769Z,4.50
2018-07-06T09:02:02.083Z,5.00
2018-07-06T09:12:04.120Z,4.97
2018-07-06T09:22:05.395Z,4.43
2018-07-06T09:32:06.682Z,4.73
2018-07-06T09:42:07.925Z,4.70
2018-07-06T09:52:09.206Z,5.30
2018-07-06T10:02:10.546Z,5.17
2018-07-06T10:12:11.822Z,5.60
2018-07-06T10:22:13.098Z,5.17
2018-07-06T10:32:14.390Z,4.83
2018-07-06T10:42:15.663Z,4.53
2018-07-06T10:52:16.920Z,4.00
2018-07-06T11:02:18.182Z,4.13
2018-07-06T11:12:19.445Z,3.93
2018-07-06T11:22:20.720Z,3.70
2018-07-06T11:32:22.011Z,3.87
2018-07-06T11:42:23.287Z,3.93
2018-07-06T11:52:25.318Z,3.70
2018-07-06T12:02:26.651Z,3.67
2018-07-06T12:12:27.893Z,3.97
2018-07-06T12:22:29.910Z,4.10
2018-07-06T12:32:31.960Z,3.13
2018-07-06T12:42:33.218Z,2.90
2018-07-06T12:52:35.261Z,3.23
2018-07-06T13:02:36.541Z,2.87
2018-07-06T13:12:37.833Z,2.50
2018-07-06T13:22:39.102Z,2.50
2018-07-06T13:32:40.524Z,2.60
2018-07-06T13:42:42.534Z,2.40
2018-07-06T13:52:44.559Z,2.30
2018-07-06T14:02:45.804Z,2.13
2018-07-06T14:12:47.074Z,1.80
2018-07-06T14:22:49.170Z,1.70
2018-07-06T14:32:50.434Z,1.20
2018-07-06T14:42:52.441Z,1.70
2018-07-06T14:52:54.491Z,1.20
2018-07-06T15:13:02.509Z,1.10
2018-07-06T15:23:04.526Z,1.17
2018-07-06T15:33:05.798Z,1.20
2018-07-06T15:43:07.828Z,1.00
2018-07-06T15:53:09.101Z,1.20
2018-07-06T16:03:11.139Z,1.20
2018-07-06T16:23:19.807Z,1.80
2018-07-06T16:43:27.956Z,1.43
2018-07-06T16:53:30.086Z,1.13
2018-07-06T17:03:32.118Z,1.70
2018-07-06T17:13:33.378Z,1.33
2018-07-06T17:23:34.682Z,1.40
2018-07-06T17:33:38.834Z,1.13
2018-07-06T17:43:40.102Z,1.10
2018-07-06T17:53:41.399Z,1.10
2018-07-06T18:03:42.668Z,1.13
2018-07-06T18:13:43.937Z,1.40
2018-07-06T18:23:46.557Z,1.87
2018-07-06T18:33:48.205Z,1.63
2018-07-06T18:43:50.241Z,1.77
2018-07-06T18:53:51.504Z,2.10
2018-07-06T19:44:22.475Z,3.90
2018-07-06T19:54:23.771Z,4.17
2018-07-06T20:04:25.031Z,4.30
2018-07-06T20:24:33.539Z,3.73
2018-07-06T20:34:34.823Z,3.93
2018-07-06T20:44:36.093Z,3.60
2018-07-06T20:54:37.368Z,3.30
2018-07-06T21:04:38.640Z,3.17
2018-07-06T21:14:40.673Z,3.23
2018-07-06T21:24:41.934Z,3.00
2018-07-06T21:34:43.186Z,2.83
2018-07-06T21:44:44.432Z,3.10
2018-07-06T21:54:45.683Z,3.23
2018-07-06T22:35:08.601Z,3.90
2018-07-06T22:45:09.854Z,3.57
2018-07-06T22:55:11.113Z,2.80
2018-07-06T23:05:13.150Z,3.83
2018-07-06T23:15:14.378Z,2.43
2018-07-06T23:25:15.642Z,2.73
2018-07-06T23:35:16.895Z,2.90
2018-07-06T23:45:18.159Z,3.00
2018-07-06T23:55:19.394Z,3.20
